sensor_id;sensor_type;location;lat;lon;timestamp;P1;durP1;ratioP1;P2;durP2;ratioP2
30723;SDS011;17473;52.286;20.930;2023-04-06T00:01:07;10.93;;;4.30;;
30723;SDS011;17473;52.286;20.930;2023-04-06T00:03:34;9.47;;;4.43;;
30723;SDS011;17473;52.286;20.930;2023-04-06T00:06:02;6.40;;;3.97;;
30723;SDS011;17473;52.286;20.930;2023-04-06T00:08:29;6.30;;;3.50;;
30723;SDS011;17473;52.286;20.930;2023-04-06T00:10:56;9.20;;;3.10;;
30723;SDS011;17473;52.286;20.930;2023-04-06T00:13:23;8.60;;;4.70;;
30723;SDS011;17473;52.286;20.930;2023-04-06T00:15:50;7.07;;;3.53;;
30723;SDS011;17473;52.286;20.930;2023-04-06T00:18:17;7.90;;;3.30;;
30723;SDS011;17473;52.286;20.930;2023-04-06T00:20:45;7.03;;;3.47;;
30723;SDS011;17473;52.286;20.930;2023-04-06T00:23:12;7.17;;;3.47;;
30723;SDS011;17473;52.286;20.930;2023-04-06T00:25:40;7.27;;;3.50;;
30723;SDS011;17473;52.286;20.930;2023-04-06T00:28:07;5.40;;;3.50;;
30723;SDS011;17473;52.286;20.930;2023-04-06T00:30:34;6.27;;;3.07;;
30723;SDS011;17473;52.286;20.930;2023-04-06T00:33:01;7.00;;;3.17;;
30723;SDS011;17473;52.286;20.930;2023-04-06T00:35:28;5.87;;;3.27;;
30723;SDS011;17473;52.286;20.930;2023-04-06T00:37:55;5.33;;;2.90;;
30723;SDS011;17473;52.286;20.930;2023-04-06T00:40:22;6.47;;;3.17;;
30723;SDS011;17473;52.286;20.930;2023-04-06T00:42:49;5.77;;;3.40;;
30723;SDS011;17473;52.286;20.930;2023-04-06T00:45:16;11.83;;;4.13;;
30723;SDS011;17473;52.286;20.930;2023-04-06T00:47:44;6.20;;;3.43;;
30723;SDS011;17473;52.286;20.930;2023-04-06T00:50:11;6.10;;;3.37;;
30723;SDS011;17473;52.286;20.930;2023-04-06T00:52:38;7.47;;;3.80;;
30723;SDS011;17473;52.286;20.930;2023-04-06T00:55:05;5.47;;;3.40;;
30723;SDS011;17473;52.286;20.930;2023-04-06T00:57:33;7.53;;;3.57;;
30723;SDS011;17473;52.286;20.930;2023-04-06T01:00:00;6.10;;;3.50;;
30723;SDS011;17473;52.286;20.930;2023-04-06T01:02:27;8.40;;;3.70;;
30723;SDS011;17473;52.286;20.930;2023-04-06T01:04:54;8.53;;;4.30;;
30723;SDS011;17473;52.286;20.930;2023-04-06T01:07:21;5.07;;;3.57;;
30723;SDS011;17473;52.286;20.930;2023-04-06T01:09:49;8.70;;;3.50;;
30723;SDS011;17473;52.286;20.930;2023-04-06T01:12:16;7.90;;;3.50;;
30723;SDS011;17473;52.286;20.930;2023-04-06T01:14:43;8.23;;;3.67;;
30723;SDS011;17473;52.286;20.930;2023-04-06T01:17:10;7.43;;;3.50;;
30723;SDS011;17473;52.286;20.930;2023-04-06T01:19:37;9.40;;;3.60;;
30723;SDS011;17473;52.286;20.930;2023-04-06T01:22:06;6.43;;;3.40;;
30723;SDS011;17473;52.286;20.930;2023-04-06T01:24:33;7.93;;;3.70;;
30723;SDS011;17473;52.286;20.930;2023-04-06T01:27:00;12.47;;;4.00;;
30723;SDS011;17473;52.286;20.930;2023-04-06T01:29:27;7.10;;;3.73;;
30723;SDS011;17473;52.286;20.930;2023-04-06T01:31:55;4.87;;;3.40;;
30723;SDS011;17473;52.286;20.930;2023-04-06T01:34:22;6.97;;;3.40;;
30723;SDS011;17473;52.286;20.930;2023-04-06T01:36:49;6.53;;;3.97;;
30723;SDS011;17473;52.286;20.930;2023-04-06T01:39:16;6.07;;;3.90;;
30723;SDS011;17473;52.286;20.930;2023-04-06T01:41:45;7.43;;;3.77;;
30723;SDS011;17473;52.286;20.930;2023-04-06T01:44:16;4.70;;;3.50;;
30723;SDS011;17473;52.286;20.930;2023-04-06T01:46:45;8.57;;;4.00;;
30723;SDS011;17473;52.286;20.930;2023-04-06T01:49:12;8.63;;;4.13;;
30723;SDS011;17473;52.286;20.930;2023-04-06T01:51:39;6.90;;;4.07;;
30723;SDS011;17473;52.286;20.930;2023-04-06T01:54:06;9.47;;;5.00;;
30723;SDS011;17473;52.286;20.930;2023-04-06T01:56:33;7.90;;;4.40;;
30723;SDS011;17473;52.286;20.930;2023-04-06T01:59:00;7.77;;;3.87;;
30723;SDS011;17473;52.286;20.930;2023-04-06T02:01:28;10.03;;;4.60;;
30723;SDS011;17473;52.286;20.930;2023-04-06T02:03:55;9.30;;;5.43;;
30723;SDS011;17473;52.286;20.930;2023-04-06T02:06:22;10.47;;;5.30;;
30723;SDS011;17473;52.286;20.930;2023-04-06T02:08:49;13.27;;;5.17;;
30723;SDS011;17473;52.286;20.930;2023-04-06T02:11:16;9.97;;;5.43;;
30723;SDS011;17473;52.286;20.930;2023-04-06T02:13:43;12.30;;;5.30;;
30723;SDS011;17473;52.286;20.930;2023-04-06T02:16:10;8.87;;;5.37;;
30723;SDS011;17473;52.286;20.930;2023-04-06T02:18:38;11.40;;;5.60;;
30723;SDS011;17473;52.286;20.930;2023-04-06T02:21:05;14.10;;;6.37;;
30723;SDS011;17473;52.286;20.930;2023-04-06T02:23:32;11.47;;;6.47;;
30723;SDS011;17473;52.286;20.930;2023-04-06T02:25:59;12.30;;;6.80;;
30723;SDS011;17473;52.286;20.930;2023-04-06T02:28:26;10.90;;;5.60;;
30723;SDS011;17473;52.286;20.930;2023-04-06T02:30:53;11.93;;;6.00;;
30723;SDS011;17473;52.286;20.930;2023-04-06T02:33:20;14.37;;;6.07;;
30723;SDS011;17473;52.286;20.930;2023-04-06T02:35:47;10.77;;;5.83;;
30723;SDS011;17473;52.286;20.930;2023-04-06T02:38:14;17.03;;;6.97;;
30723;SDS011;17473;52.286;20.930;2023-04-06T02:40:41;16.57;;;7.23;;
30723;SDS011;17473;52.286;20.930;2023-04-06T02:43:08;14.07;;;6.33;;
30723;SDS011;17473;52.286;20.930;2023-04-06T02:45:35;13.67;;;6.70;;
30723;SDS011;17473;52.286;20.930;2023-04-06T02:48:02;13.97;;;6.90;;
30723;SDS011;17473;52.286;20.930;2023-04-06T02:50:30;10.23;;;6.00;;
30723;SDS011;17473;52.286;20.930;2023-04-06T02:52:57;10.70;;;5.93;;
30723;SDS011;17473;52.286;20.930;2023-04-06T02:55:24;12.83;;;6.37;;
30723;SDS011;17473;52.286;20.930;2023-04-06T02:57:51;14.57;;;6.80;;
30723;SDS011;17473;52.286;20.930;2023-04-06T03:00:18;10.80;;;6.43;;
30723;SDS011;17473;52.286;20.930;2023-04-06T03:02:45;19.00;;;7.70;;
30723;SDS011;17473;52.286;20.930;2023-04-06T03:05:15;13.97;;;6.63;;
30723;SDS011;17473;52.286;20.930;2023-04-06T03:07:42;15.03;;;6.27;;
30723;SDS011;17473;52.286;20.930;2023-04-06T03:10:09;15.53;;;6.57;;
30723;SDS011;17473;52.286;20.930;2023-04-06T03:12:37;14.20;;;6.90;;
30723;SDS011;17473;52.286;20.930;2023-04-06T03:15:04;14.13;;;7.17;;
30723;SDS011;17473;52.286;20.930;2023-04-06T03:17:32;15.50;;;7.53;;
30723;SDS011;17473;52.286;20.930;2023-04-06T03:19:59;14.83;;;7.47;;
30723;SDS011;17473;52.286;20.930;2023-04-06T03:22:26;16.23;;;7.80;;
30723;SDS011;17473;52.286;20.930;2023-04-06T03:24:53;16.53;;;7.33;;
30723;SDS011;17473;52.286;20.930;2023-04-06T03:27:20;13.97;;;6.90;;
30723;SDS011;17473;52.286;20.930;2023-04-06T03:29:47;17.33;;;7.67;;
30723;SDS011;17473;52.286;20.930;2023-04-06T03:32:14;16.43;;;7.50;;
30723;SDS011;17473;52.286;20.930;2023-04-06T03:34:42;19.80;;;7.03;;
30723;SDS011;17473;52.286;20.930;2023-04-06T03:37:09;13.77;;;7.43;;
30723;SDS011;17473;52.286;20.930;2023-04-06T03:39:36;19.23;;;8.20;;
30723;SDS011;17473;52.286;20.930;2023-04-06T03:42:03;20.50;;;9.37;;
30723;SDS011;17473;52.286;20.930;2023-04-06T03:44:30;18.10;;;8.40;;
30723;SDS011;17473;52.286;20.930;2023-04-06T03:46:58;18.07;;;7.93;;
30723;SDS011;17473;52.286;20.930;2023-04-06T03:49:25;15.77;;;8.80;;
30723;SDS011;17473;52.286;20.930;2023-04-06T03:51:52;15.17;;;7.57;;
30723;SDS011;17473;52.286;20.930;2023-04-06T03:54:19;14.60;;;8.00;;
30723;SDS011;17473;52.286;20.930;2023-04-06T03:56:46;16.47;;;7.47;;
30723;SDS011;17473;52.286;20.930;2023-04-06T03:59:13;22.30;;;9.10;;
30723;SDS011;17473;52.286;20.930;2023-04-06T04:01:41;14.93;;;8.03;;
30723;SDS011;17473;52.286;20.930;2023-04-06T04:04:09;18.17;;;8.63;;
30723;SDS011;17473;52.286;20.930;2023-04-06T04:06:37;19.23;;;9.00;;
30723;SDS011;17473;52.286;20.930;2023-04-06T04:09:04;19.43;;;8.80;;
30723;SDS011;17473;52.286;20.930;2023-04-06T04:11:31;22.20;;;8.53;;
30723;SDS011;17473;52.286;20.930;2023-04-06T04:13:58;18.70;;;8.90;;
30723;SDS011;17473;52.286;20.930;2023-04-06T04:16:25;23.07;;;8.10;;
30723;SDS011;17473;52.286;20.930;2023-04-06T04:18:52;19.10;;;8.70;;
30723;SDS011;17473;52.286;20.930;2023-04-06T04:21:19;18.60;;;8.83;;
30723;SDS011;17473;52.286;20.930;2023-04-06T04:23:46;23.70;;;9.43;;
30723;SDS011;17473;52.286;20.930;2023-04-06T04:26:13;16.77;;;8.47;;
30723;SDS011;17473;52.286;20.930;2023-04-06T04:28:40;23.67;;;8.00;;
30723;SDS011;17473;52.286;20.930;2023-04-06T04:31:07;18.90;;;8.97;;
30723;SDS011;17473;52.286;20.930;2023-04-06T04:33:34;17.87;;;8.13;;
30723;SDS011;17473;52.286;20.930;2023-04-06T04:36:01;15.13;;;7.90;;
30723;SDS011;17473;52.286;20.930;2023-04-06T04:38:29;15.80;;;7.33;;
30723;SDS011;17473;52.286;20.930;2023-04-06T04:40:56;19.53;;;9.30;;
30723;SDS011;17473;52.286;20.930;2023-04-06T04:43:23;14.13;;;7.93;;
30723;SDS011;17473;52.286;20.930;2023-04-06T04:45:50;14.80;;;7.90;;
30723;SDS011;17473;52.286;20.930;2023-04-06T04:48:18;19.33;;;9.63;;
30723;SDS011;17473;52.286;20.930;2023-04-06T04:50:46;21.10;;;9.60;;
30723;SDS011;17473;52.286;20.930;2023-04-06T04:53:13;14.97;;;9.27;;
30723;SDS011;17473;52.286;20.930;2023-04-06T04:55:40;17.67;;;8.90;;
30723;SDS011;17473;52.286;20.930;2023-04-06T04:58:07;20.47;;;10.30;;
30723;SDS011;17473;52.286;20.930;2023-04-06T05:00:35;21.57;;;9.43;;
30723;SDS011;17473;52.286;20.930;2023-04-06T05:03:02;20.00;;;9.43;;
30723;SDS011;17473;52.286;20.930;2023-04-06T05:05:31;22.00;;;9.33;;
30723;SDS011;17473;52.286;20.930;2023-04-06T05:07:58;16.90;;;9.57;;
30723;SDS011;17473;52.286;20.930;2023-04-06T05:10:25;19.67;;;8.80;;
30723;SDS011;17473;52.286;20.930;2023-04-06T05:12:52;18.33;;;9.57;;
30723;SDS011;17473;52.286;20.930;2023-04-06T05:15:19;17.40;;;8.70;;
30723;SDS011;17473;52.286;20.930;2023-04-06T05:17:46;20.97;;;7.93;;
30723;SDS011;17473;52.286;20.930;2023-04-06T05:20:14;23.07;;;8.10;;
30723;SDS011;17473;52.286;20.930;2023-04-06T05:22:41;15.77;;;7.07;;
30723;SDS011;17473;52.286;20.930;2023-04-06T05:25:08;11.80;;;6.80;;
30723;SDS011;17473;52.286;20.930;2023-04-06T05:27:35;14.37;;;6.27;;
30723;SDS011;17473;52.286;20.930;2023-04-06T05:30:03;13.00;;;6.17;;
30723;SDS011;17473;52.286;20.930;2023-04-06T05:32:30;16.87;;;6.40;;
30723;SDS011;17473;52.286;20.930;2023-04-06T05:34:58;13.47;;;6.03;;
30723;SDS011;17473;52.286;20.930;2023-04-06T05:37:25;11.03;;;5.90;;
30723;SDS011;17473;52.286;20.930;2023-04-06T05:39:52;11.40;;;4.97;;
30723;SDS011;17473;52.286;20.930;2023-04-06T05:42:19;11.73;;;6.23;;
30723;SDS011;17473;52.286;20.930;2023-04-06T05:44:46;13.63;;;6.03;;
30723;SDS011;17473;52.286;20.930;2023-04-06T05:47:13;11.83;;;5.80;;
30723;SDS011;17473;52.286;20.930;2023-04-06T05:49:41;9.33;;;5.17;;
30723;SDS011;17473;52.286;20.930;2023-04-06T05:52:09;12.13;;;5.90;;
30723;SDS011;17473;52.286;20.930;2023-04-06T05:54:36;8.73;;;5.13;;
30723;SDS011;17473;52.286;20.930;2023-04-06T05:57:03;11.47;;;6.20;;
30723;SDS011;17473;52.286;20.930;2023-04-06T05:59:31;16.77;;;6.27;;
30723;SDS011;17473;52.286;20.930;2023-04-06T06:01:58;10.50;;;5.23;;
30723;SDS011;17473;52.286;20.930;2023-04-06T06:04:27;11.70;;;5.13;;
30723;SDS011;17473;52.286;20.930;2023-04-06T06:06:54;13.37;;;5.00;;
30723;SDS011;17473;52.286;20.930;2023-04-06T06:09:21;8.90;;;4.63;;
30723;SDS011;17473;52.286;20.930;2023-04-06T06:11:49;7.90;;;4.70;;
30723;SDS011;17473;52.286;20.930;2023-04-06T06:14:16;8.23;;;5.10;;
30723;SDS011;17473;52.286;20.930;2023-04-06T06:16:43;7.83;;;4.73;;
30723;SDS011;17473;52.286;20.930;2023-04-06T06:19:10;8.30;;;4.67;;
30723;SDS011;17473;52.286;20.930;2023-04-06T06:21:37;8.47;;;4.40;;
30723;SDS011;17473;52.286;20.930;2023-04-06T06:24:05;13.40;;;4.80;;
30723;SDS011;17473;52.286;20.930;2023-04-06T06:26:33;9.77;;;4.27;;
30723;SDS011;17473;52.286;20.930;2023-04-06T06:29:03;11.20;;;4.30;;
30723;SDS011;17473;52.286;20.930;2023-04-06T06:31:32;7.40;;;3.97;;
30723;SDS011;17473;52.286;20.930;2023-04-06T06:33:59;7.83;;;3.73;;
30723;SDS011;17473;52.286;20.930;2023-04-06T06:36:26;8.97;;;3.60;;
30723;SDS011;17473;52.286;20.930;2023-04-06T06:38:53;11.43;;;4.40;;
30723;SDS011;17473;52.286;20.930;2023-04-06T06:41:24;6.83;;;4.07;;
30723;SDS011;17473;52.286;20.930;2023-04-06T06:43:52;7.73;;;3.67;;
30723;SDS011;17473;52.286;20.930;2023-04-06T06:46:19;14.13;;;3.50;;
30723;SDS011;17473;52.286;20.930;2023-04-06T06:48:47;9.73;;;4.20;;
30723;SDS011;17473;52.286;20.930;2023-04-06T06:51:14;7.03;;;3.73;;
30723;SDS011;17473;52.286;20.930;2023-04-06T06:53:41;6.20;;;3.50;;
30723;SDS011;17473;52.286;20.930;2023-04-06T06:56:08;9.90;;;4.30;;
30723;SDS011;17473;52.286;20.930;2023-04-06T06:58:35;7.47;;;3.80;;
30723;SDS011;17473;52.286;20.930;2023-04-06T07:01:02;6.63;;;3.57;;
30723;SDS011;17473;52.286;20.930;2023-04-06T07:03:31;9.27;;;3.70;;
30723;SDS011;17473;52.286;20.930;2023-04-06T07:05:58;8.53;;;3.87;;
30723;SDS011;17473;52.286;20.930;2023-04-06T07:08:25;7.13;;;3.77;;
30723;SDS011;17473;52.286;20.930;2023-04-06T07:10:53;5.77;;;3.57;;
30723;SDS011;17473;52.286;20.930;2023-04-06T07:13:22;4.93;;;3.37;;
30723;SDS011;17473;52.286;20.930;2023-04-06T07:15:50;10.67;;;3.87;;
30723;SDS011;17473;52.286;20.930;2023-04-06T07:18:17;8.67;;;3.47;;
30723;SDS011;17473;52.286;20.930;2023-04-06T07:20:45;12.30;;;3.80;;
30723;SDS011;17473;52.286;20.930;2023-04-06T07:23:13;6.67;;;3.80;;
30723;SDS011;17473;52.286;20.930;2023-04-06T07:25:40;8.37;;;3.83;;
30723;SDS011;17473;52.286;20.930;2023-04-06T07:28:07;6.30;;;3.63;;
30723;SDS011;17473;52.286;20.930;2023-04-06T07:30:34;9.57;;;4.47;;
30723;SDS011;17473;52.286;20.930;2023-04-06T07:33:02;8.80;;;4.13;;
30723;SDS011;17473;52.286;20.930;2023-04-06T07:35:30;10.60;;;4.47;;
30723;SDS011;17473;52.286;20.930;2023-04-06T07:37:57;8.03;;;4.07;;
30723;SDS011;17473;52.286;20.930;2023-04-06T07:40:24;6.87;;;3.60;;
30723;SDS011;17473;52.286;20.930;2023-04-06T07:42:53;5.97;;;3.40;;
30723;SDS011;17473;52.286;20.930;2023-04-06T07:45:23;7.20;;;3.33;;
30723;SDS011;17473;52.286;20.930;2023-04-06T07:47:50;8.80;;;3.60;;
30723;SDS011;17473;52.286;20.930;2023-04-06T07:50:17;10.23;;;3.57;;
30723;SDS011;17473;52.286;20.930;2023-04-06T07:52:44;6.30;;;3.10;;
30723;SDS011;17473;52.286;20.930;2023-04-06T07:55:11;5.17;;;2.60;;
30723;SDS011;17473;52.286;20.930;2023-04-06T07:57:38;7.97;;;3.17;;
30723;SDS011;17473;52.286;20.930;2023-04-06T08:00:06;9.27;;;3.87;;
30723;SDS011;17473;52.286;20.930;2023-04-06T08:02:35;6.97;;;3.47;;
30723;SDS011;17473;52.286;20.930;2023-04-06T08:05:03;4.63;;;3.07;;
30723;SDS011;17473;52.286;20.930;2023-04-06T08:07:30;5.80;;;2.60;;
30723;SDS011;17473;52.286;20.930;2023-04-06T08:09:57;7.03;;;3.10;;
30723;SDS011;17473;52.286;20.930;2023-04-06T08:12:24;4.13;;;2.37;;
30723;SDS011;17473;52.286;20.930;2023-04-06T08:14:51;4.73;;;2.37;;
30723;SDS011;17473;52.286;20.930;2023-04-06T08:17:18;9.57;;;3.10;;
30723;SDS011;17473;52.286;20.930;2023-04-06T08:19:46;5.40;;;2.77;;
30723;SDS011;17473;52.286;20.930;2023-04-06T08:22:13;8.93;;;3.53;;
30723;SDS011;17473;52.286;20.930;2023-04-06T08:24:40;12.17;;;4.67;;
30723;SDS011;17473;52.286;20.930;2023-04-06T08:27:07;10.13;;;5.03;;
30723;SDS011;17473;52.286;20.930;2023-04-06T08:29:34;10.97;;;4.00;;
30723;SDS011;17473;52.286;20.930;2023-04-06T08:32:01;10.13;;;3.37;;
30723;SDS011;17473;52.286;20.930;2023-04-06T08:34:32;5.33;;;3.30;;
30723;SDS011;17473;52.286;20.930;2023-04-06T08:36:59;13.80;;;3.57;;
30723;SDS011;17473;52.286;20.930;2023-04-06T08:39:27;6.90;;;3.00;;
30723;SDS011;17473;52.286;20.930;2023-04-06T08:41:56;8.83;;;3.27;;
30723;SDS011;17473;52.286;20.930;2023-04-06T08:44:26;8.20;;;3.57;;
30723;SDS011;17473;52.286;20.930;2023-04-06T08:46:53;7.27;;;3.83;;
30723;SDS011;17473;52.286;20.930;2023-04-06T08:49:21;11.77;;;3.57;;
30723;SDS011;17473;52.286;20.930;2023-04-06T08:51:49;7.40;;;3.37;;
30723;SDS011;17473;52.286;20.930;2023-04-06T08:54:17;10.83;;;3.80;;
30723;SDS011;17473;52.286;20.930;2023-04-06T08:56:44;8.60;;;3.20;;
30723;SDS011;17473;52.286;20.930;2023-04-06T08:59:12;7.03;;;3.17;;
30723;SDS011;17473;52.286;20.930;2023-04-06T09:01:40;7.77;;;3.50;;
30723;SDS011;17473;52.286;20.930;2023-04-06T09:04:08;7.03;;;3.20;;
30723;SDS011;17473;52.286;20.930;2023-04-06T09:06:38;5.97;;;3.77;;
30723;SDS011;17473;52.286;20.930;2023-04-06T09:09:07;9.27;;;4.27;;
30723;SDS011;17473;52.286;20.930;2023-04-06T09:11:41;6.70;;;3.77;;
30723;SDS011;17473;52.286;20.930;2023-04-06T09:14:12;12.00;;;3.90;;
30723;SDS011;17473;52.286;20.930;2023-04-06T09:16:40;11.27;;;3.97;;
30723;SDS011;17473;52.286;20.930;2023-04-06T09:19:09;9.10;;;4.13;;
30723;SDS011;17473;52.286;20.930;2023-04-06T09:21:37;10.27;;;3.80;;
30723;SDS011;17473;52.286;20.930;2023-04-06T09:24:06;5.27;;;3.20;;
30723;SDS011;17473;52.286;20.930;2023-04-06T09:26:44;6.67;;;3.60;;
30723;SDS011;17473;52.286;20.930;2023-04-06T09:29:23;5.70;;;2.77;;
30723;SDS011;17473;52.286;20.930;2023-04-06T09:32:01;6.80;;;3.53;;
30723;SDS011;17473;52.286;20.930;2023-04-06T09:34:33;8.30;;;3.53;;
30723;SDS011;17473;52.286;20.930;2023-04-06T09:37:00;9.53;;;4.07;;
30723;SDS011;17473;52.286;20.930;2023-04-06T09:39:37;4.90;;;3.10;;
30723;SDS011;17473;52.286;20.930;2023-04-06T09:42:04;7.80;;;4.10;;
30723;SDS011;17473;52.286;20.930;2023-04-06T09:44:32;9.13;;;3.90;;
30723;SDS011;17473;52.286;20.930;2023-04-06T09:46:59;8.10;;;3.80;;
30723;SDS011;17473;52.286;20.930;2023-04-06T09:49:27;8.37;;;3.67;;
30723;SDS011;17473;52.286;20.930;2023-04-06T09:52:00;7.23;;;3.30;;
30723;SDS011;17473;52.286;20.930;2023-04-06T09:54:30;8.70;;;3.00;;
30723;SDS011;17473;52.286;20.930;2023-04-06T09:57:01;8.03;;;3.93;;
30723;SDS011;17473;52.286;20.930;2023-04-06T09:59:43;10.00;;;3.63;;
30723;SDS011;17473;52.286;20.930;2023-04-06T10:02:28;6.07;;;3.53;;
30723;SDS011;17473;52.286;20.930;2023-04-06T10:07:56;6.37;;;3.33;;
30723;SDS011;17473;52.286;20.930;2023-04-06T10:10:27;7.33;;;3.20;;
30723;SDS011;17473;52.286;20.930;2023-04-06T10:12:55;9.30;;;3.70;;
30723;SDS011;17473;52.286;20.930;2023-04-06T10:15:24;9.47;;;3.80;;
30723;SDS011;17473;52.286;20.930;2023-04-06T10:17:51;5.73;;;4.07;;
30723;SDS011;17473;52.286;20.930;2023-04-06T10:23:29;6.93;;;3.63;;
30723;SDS011;17473;52.286;20.930;2023-04-06T10:26:00;6.43;;;3.43;;
30723;SDS011;17473;52.286;20.930;2023-04-06T10:28:32;9.20;;;3.90;;
30723;SDS011;17473;52.286;20.930;2023-04-06T10:31:04;5.83;;;3.37;;
30723;SDS011;17473;52.286;20.930;2023-04-06T10:33:32;6.73;;;3.40;;
30723;SDS011;17473;52.286;20.930;2023-04-06T10:36:13;5.00;;;3.10;;
30723;SDS011;17473;52.286;20.930;2023-04-06T10:38:41;5.30;;;3.17;;
30723;SDS011;17473;52.286;20.930;2023-04-06T10:41:09;9.33;;;3.33;;
30723;SDS011;17473;52.286;20.930;2023-04-06T10:43:38;7.83;;;4.10;;
30723;SDS011;17473;52.286;20.930;2023-04-06T10:46:09;10.40;;;3.70;;
30723;SDS011;17473;52.286;20.930;2023-04-06T10:48:37;5.97;;;3.33;;
30723;SDS011;17473;52.286;20.930;2023-04-06T10:51:11;6.90;;;3.57;;
30723;SDS011;17473;52.286;20.930;2023-04-06T10:53:44;5.77;;;3.23;;
30723;SDS011;17473;52.286;20.930;2023-04-06T10:56:16;5.40;;;3.80;;
30723;SDS011;17473;52.286;20.930;2023-04-06T10:58:47;6.30;;;3.77;;
30723;SDS011;17473;52.286;20.930;2023-04-06T11:01:23;7.60;;;4.10;;
30723;SDS011;17473;52.286;20.930;2023-04-06T11:03:56;6.10;;;3.57;;
30723;SDS011;17473;52.286;20.930;2023-04-06T11:06:28;6.73;;;4.13;;
30723;SDS011;17473;52.286;20.930;2023-04-06T11:08:57;7.07;;;4.00;;
30723;SDS011;17473;52.286;20.930;2023-04-06T11:11:25;15.70;;;5.80;;
30723;SDS011;17473;52.286;20.930;2023-04-06T11:13:56;18.10;;;8.10;;
30723;SDS011;17473;52.286;20.930;2023-04-06T11:16:32;22.70;;;7.07;;
30723;SDS011;17473;52.286;20.930;2023-04-06T11:19:00;10.50;;;4.87;;
30723;SDS011;17473;52.286;20.930;2023-04-06T11:21:39;13.67;;;5.10;;
30723;SDS011;17473;52.286;20.930;2023-04-06T11:24:16;8.47;;;4.07;;
30723;SDS011;17473;52.286;20.930;2023-04-06T11:26:49;6.47;;;4.07;;
30723;SDS011;17473;52.286;20.930;2023-04-06T11:29:27;11.30;;;4.10;;
30723;SDS011;17473;52.286;20.930;2023-04-06T11:32:00;10.40;;;4.33;;
30723;SDS011;17473;52.286;20.930;2023-04-06T11:34:30;8.87;;;4.50;;
30723;SDS011;17473;52.286;20.930;2023-04-06T11:37:07;11.00;;;5.10;;
30723;SDS011;17473;52.286;20.930;2023-04-06T11:39:46;12.13;;;4.90;;
30723;SDS011;17473;52.286;20.930;2023-04-06T11:42:25;8.47;;;4.97;;
30723;SDS011;17473;52.286;20.930;2023-04-06T11:44:59;10.83;;;4.67;;
30723;SDS011;17473;52.286;20.930;2023-04-06T11:47:30;9.63;;;4.97;;
30723;SDS011;17473;52.286;20.930;2023-04-06T11:50:09;11.00;;;4.93;;
30723;SDS011;17473;52.286;20.930;2023-04-06T11:52:40;9.73;;;4.93;;
30723;SDS011;17473;52.286;20.930;2023-04-06T11:55:15;8.77;;;4.93;;
30723;SDS011;17473;52.286;20.930;2023-04-06T11:57:44;7.90;;;4.70;;
30723;SDS011;17473;52.286;20.930;2023-04-06T12:00:14;8.03;;;5.27;;
30723;SDS011;17473;52.286;20.930;2023-04-06T12:02:45;9.80;;;5.37;;
30723;SDS011;17473;52.286;20.930;2023-04-06T12:05:14;10.10;;;5.00;;
30723;SDS011;17473;52.286;20.930;2023-04-06T12:07:41;9.63;;;5.73;;
30723;SDS011;17473;52.286;20.930;2023-04-06T12:10:09;8.80;;;4.73;;
30723;SDS011;17473;52.286;20.930;2023-04-06T12:12:36;9.93;;;5.60;;
30723;SDS011;17473;52.286;20.930;2023-04-06T12:15:03;7.43;;;5.27;;
30723;SDS011;17473;52.286;20.930;2023-04-06T12:17:31;7.67;;;5.00;;
30723;SDS011;17473;52.286;20.930;2023-04-06T12:19:58;8.60;;;5.33;;
30723;SDS011;17473;52.286;20.930;2023-04-06T12:22:30;8.13;;;4.93;;
30723;SDS011;17473;52.286;20.930;2023-04-06T12:24:57;7.03;;;4.63;;
30723;SDS011;17473;52.286;20.930;2023-04-06T12:27:24;6.33;;;4.70;;
30723;SDS011;17473;52.286;20.930;2023-04-06T12:29:52;8.53;;;4.47;;
30723;SDS011;17473;52.286;20.930;2023-04-06T12:32:19;8.23;;;4.80;;
30723;SDS011;17473;52.286;20.930;2023-04-06T12:34:46;9.37;;;4.30;;
30723;SDS011;17473;52.286;20.930;2023-04-06T12:37:13;11.17;;;4.60;;
30723;SDS011;17473;52.286;20.930;2023-04-06T12:39:41;11.13;;;4.90;;
30723;SDS011;17473;52.286;20.930;2023-04-06T12:42:10;7.90;;;4.63;;
30723;SDS011;17473;52.286;20.930;2023-04-06T12:44:38;7.90;;;4.13;;
30723;SDS011;17473;52.286;20.930;2023-04-06T12:47:06;6.73;;;3.93;;
30723;SDS011;17473;52.286;20.930;2023-04-06T12:49:33;7.27;;;4.13;;
30723;SDS011;17473;52.286;20.930;2023-04-06T12:52:01;6.33;;;3.77;;
30723;SDS011;17473;52.286;20.930;2023-04-06T12:54:29;8.60;;;4.47;;
30723;SDS011;17473;52.286;20.930;2023-04-06T12:56:56;6.23;;;3.93;;
30723;SDS011;17473;52.286;20.930;2023-04-06T12:59:23;6.87;;;4.00;;
30723;SDS011;17473;52.286;20.930;2023-04-06T13:01:51;5.13;;;3.80;;
30723;SDS011;17473;52.286;20.930;2023-04-06T13:04:19;9.37;;;4.00;;
30723;SDS011;17473;52.286;20.930;2023-04-06T13:06:46;6.93;;;4.33;;
30723;SDS011;17473;52.286;20.930;2023-04-06T13:09:13;8.57;;;4.00;;
30723;SDS011;17473;52.286;20.930;2023-04-06T13:11:40;6.10;;;3.70;;
30723;SDS011;17473;52.286;20.930;2023-04-06T13:14:07;6.20;;;4.00;;
30723;SDS011;17473;52.286;20.930;2023-04-06T13:16:34;7.23;;;4.00;;
30723;SDS011;17473;52.286;20.930;2023-04-06T13:19:02;5.83;;;4.13;;
30723;SDS011;17473;52.286;20.930;2023-04-06T13:21:29;6.67;;;3.67;;
30723;SDS011;17473;52.286;20.930;2023-04-06T13:23:56;5.53;;;3.70;;
30723;SDS011;17473;52.286;20.930;2023-04-06T13:26:23;5.73;;;3.83;;
30723;SDS011;17473;52.286;20.930;2023-04-06T13:28:51;5.93;;;4.07;;
30723;SDS011;17473;52.286;20.930;2023-04-06T13:31:18;5.30;;;4.00;;
30723;SDS011;17473;52.286;20.930;2023-04-06T13:33:45;7.43;;;3.30;;
30723;SDS011;17473;52.286;20.930;2023-04-06T13:36:12;6.90;;;3.30;;
30723;SDS011;17473;52.286;20.930;2023-04-06T13:38:43;4.73;;;3.20;;
30723;SDS011;17473;52.286;20.930;2023-04-06T13:41:17;9.00;;;3.53;;
30723;SDS011;17473;52.286;20.930;2023-04-06T13:43:49;7.40;;;4.10;;
30723;SDS011;17473;52.286;20.930;2023-04-06T13:46:16;10.77;;;5.40;;
30723;SDS011;17473;52.286;20.930;2023-04-06T13:48:44;13.83;;;6.77;;
30723;SDS011;17473;52.286;20.930;2023-04-06T13:51:11;8.30;;;4.77;;
30723;SDS011;17473;52.286;20.930;2023-04-06T13:53:40;9.30;;;4.00;;
30723;SDS011;17473;52.286;20.930;2023-04-06T13:56:07;7.07;;;4.00;;
30723;SDS011;17473;52.286;20.930;2023-04-06T13:58:34;8.23;;;3.73;;
30723;SDS011;17473;52.286;20.930;2023-04-06T14:01:03;11.03;;;4.63;;
30723;SDS011;17473;52.286;20.930;2023-04-06T14:03:33;5.27;;;3.50;;
30723;SDS011;17473;52.286;20.930;2023-04-06T14:06:01;6.63;;;3.53;;
30723;SDS011;17473;52.286;20.930;2023-04-06T14:08:52;10.57;;;4.00;;
30723;SDS011;17473;52.286;20.930;2023-04-06T14:11:19;5.90;;;3.60;;
30723;SDS011;17473;52.286;20.930;2023-04-06T14:13:46;11.43;;;4.47;;
30723;SDS011;17473;52.286;20.930;2023-04-06T14:16:13;10.50;;;4.17;;
30723;SDS011;17473;52.286;20.930;2023-04-06T14:18:41;4.60;;;3.57;;
30723;SDS011;17473;52.286;20.930;2023-04-06T14:21:08;7.23;;;4.57;;
30723;SDS011;17473;52.286;20.930;2023-04-06T14:23:36;6.83;;;4.10;;
30723;SDS011;17473;52.286;20.930;2023-04-06T14:26:07;7.10;;;4.00;;
30723;SDS011;17473;52.286;20.930;2023-04-06T14:28:35;5.23;;;3.70;;
30723;SDS011;17473;52.286;20.930;2023-04-06T14:31:09;10.50;;;3.60;;
30723;SDS011;17473;52.286;20.930;2023-04-06T14:33:39;10.80;;;4.40;;
30723;SDS011;17473;52.286;20.930;2023-04-06T14:36:07;7.90;;;4.37;;
30723;SDS011;17473;52.286;20.930;2023-04-06T14:38:35;5.87;;;4.20;;
30723;SDS011;17473;52.286;20.930;2023-04-06T14:41:02;7.00;;;4.43;;